Time;durP1;ratioP1;P1;durP2;ratioP2;P2;SDS_P1;SDS_P2;PMS_P1;PMS_P2;Temp;Humidity;BMP_temperature;BMP_pressure;BME280_temperature;BME280_humidity;BME280_pressure;Samples;Min_cycle;Max_cycle;Signal;HPM_P1;HPM_P2
2022/03/04 00:00:59;;;;;;;;;;;;;;;;;;5051772;28;1091;-73
2022/03/04 00:03:26;;;;;;;;;;;;;;;;;;5072316;22;1983;-74
2022/03/04 00:05:52;;;;;;;;;;;;;;;;;;5091160;28;1695;-75
2022/03/04 00:08:19;;;;;;;;;;;;;;;;;;5091780;28;1083;-75
2022/03/04 00:10:45;;;;;;;;;;;;;;;;;;5073260;28;1254;-75
2022/03/04 00:13:11;;;;;;;;;;;;;;;;;;5092172;28;1286;-75
2022/03/04 00:15:39;;;;;;;;;;;;;;;;;;5112208;28;719;-75
2022/03/04 00:18:05;;;;;;;;;;;;;;;;;;5112052;28;1921;-75
2022/03/04 00:20:31;;;;;;;;;;;;;;;;;;5111785;28;940;-76
2022/03/04 00:22:58;;;;;;;;;;;;;;;;;;5112524;28;952;-75
2022/03/04 00:25:24;;;;;;;;;;;;;;;;;;5093948;28;1432;-75
2022/03/04 00:27:50;;;;;;;;;;;;;;;;;;5093706;28;1345;-74
2022/03/04 00:30:17;;;;;;;;;;;;;;;;;;5093220;28;1264;-75
2022/03/04 00:32:44;;;;;;;;;;;;;;;;;;5111810;28;908;-75
2022/03/04 00:35:11;;;;;;;;;;;;;;;;;;5076596;28;2859;-75
2022/03/04 00:37:37;;;;;;;;;;;;;;;;;;5091374;28;1910;-76
2022/03/04 00:40:04;;;;;;;;;;;;;;;;;;5091046;28;1159;-76
2022/03/04 00:42:30;;;;;;;;;;;;;;;;;;5091528;28;822;-76
2022/03/04 00:44:56;;;;;;;;;;;;;;;;;;5091093;28;1341;-75
2022/03/04 00:47:22;;;;;;;;;;;;;;;;;;5090919;28;964;-76
2022/03/04 00:49:50;;;;;;;;;;;;;;;;;;5091034;28;904;-76
2022/03/04 00:52:16;;;;;;;;;;;;;;;;;;5073003;28;833;-76
2022/03/04 00:54:42;;;;;;;;;;;;;;;;;;5091199;28;1289;-76
2022/03/04 00:57:09;;;;;;;;;;;;;;;;;;5091048;28;1146;-76
2022/03/04 00:59:35;;;;;;;;;;;;;;;;;;5090758;28;1985;-75
2022/03/04 01:02:01;;;;;;;;;;;;;;;;;;5072967;28;1281;-76
2022/03/04 01:04:27;;;;;;;;;;;;;;;;;;5090519;28;1295;-76
2022/03/04 01:06:55;;;;;;;;;;;;;;;;;;5072858;28;1119;-76
2022/03/04 01:09:21;;;;;;;;;;;;;;;;;;5090666;28;803;-76
2022/03/04 01:11:47;;;;;;;;;;;;;;;;;;5090449;28;734;-75
2022/03/04 01:14:13;;;;;;;;;;;;;;;;;;5090767;28;1410;-76
2022/03/04 01:16:40;;;;;;;;;;;;;;;;;;5090924;28;870;-76
2022/03/04 01:19:06;;;;;;;;;;;;;;;;;;5090648;28;1969;-76
2022/03/04 01:21:32;;;;;;;;;;;;;;;;;;5090774;28;806;-76
2022/03/04 01:24:00;;;;;;;;;;;;;;;;;;5090692;28;1325;-76
2022/03/04 01:26:26;;;;;;;;;;;;;;;;;;5090936;28;860;-76
2022/03/04 01:28:52;;;;;;;;;;;;;;;;;;5090811;28;1145;-76
2022/03/04 01:31:18;;;;;;;;;;;;;;;;;;5090293;28;937;-76
2022/03/04 01:33:45;;;;;;;;;;;;;;;;;;5091032;28;1407;-76
2022/03/04 01:36:11;;;;;;;;;;;;;;;;;;5090757;28;1134;-76
2022/03/04 01:38:37;;;;;;;;;;;;;;;;;;5072632;28;1985;-76
2022/03/04 01:41:05;;;;;;;;;;;;;;;;;;5089677;28;916;-76
2022/03/04 01:43:31;;;;;;;;;;;;;;;;;;5072519;28;1340;-75
2022/03/04 01:46:00;;;;;;;;;;;;;;;;;;5090728;28;825;-76
2022/03/04 01:48:27;;;;;;;;;;;;;;;;;;5090200;28;833;-76
2022/03/04 01:50:53;;;;;;;;;;;;;;;;;;5090370;28;1135;-75
2022/03/04 01:53:20;;;;;;;;;;;;;;;;;;5072420;28;1431;-76
2022/03/04 01:55:46;;;;;;;;;;;;;;;;;;5072196;28;1383;-76
2022/03/04 01:58:14;;;;;;;;;;;;;;;;;;5072199;28;1918;-76
2022/03/04 02:00:40;;;;;;;;;;;;;;;;;;5089865;28;663;-76
2022/03/04 02:03:10;;;;;;;;;;;;;;;;;;5090105;28;1073;-76
2022/03/04 02:05:36;;;;;;;;;;;;;;;;;;5071650;28;1412;-76
2022/03/04 02:08:02;;;;;;;;;;;;;;;;;;5071833;28;1032;-76
2022/03/04 02:10:28;;;;;;;;;;;;;;;;;;5089701;28;1142;-76
2022/03/04 02:12:54;;;;;;;;;;;;;;;;;;5090044;28;889;-76
2022/03/04 02:15:22;;;;;;;;;;;;;;;;;;5089836;28;1355;-76
2022/03/04 02:17:48;;;;;;;;;;;;;;;;;;5071899;28;1981;-77
2022/03/04 02:20:14;;;;;;;;;;;;;;;;;;5071644;28;1166;-75
2022/03/04 02:22:42;;;;;;;;;;;;;;;;;;5089945;28;817;-76
2022/03/04 02:25:09;;;;;;;;;;;;;;;;;;5089973;28;1302;-76
2022/03/04 02:27:35;;;;;;;;;;;;;;;;;;5071794;28;1222;-76
2022/03/04 02:30:01;;;;;;;;;;;;;;;;;;5090508;28;1459;-76
2022/03/04 02:32:28;;;;;;;;;;;;;;;;;;5091156;28;1454;-76
2022/03/04 02:34:55;;;;;;;;;;;;;;;;;;5089581;28;1375;-76
2022/03/04 02:37:21;;;;;;;;;;;;;;;;;;5089752;28;949;-76
2022/03/04 02:39:50;;;;;;;;;;;;;;;;;;5070840;28;1972;-76
2022/03/04 02:42:17;;;;;;;;;;;;;;;;;;5089782;28;1126;-75
2022/03/04 02:44:43;;;;;;;;;;;;;;;;;;5093439;28;1415;-76
2022/03/04 02:47:09;;;;;;;;;;;;;;;;;;5093657;28;1074;-76
2022/03/04 02:49:35;;;;;;;;;;;;;;;;;;5093091;28;884;-76
2022/03/04 02:52:01;;;;;;;;;;;;;;;;;;5093213;28;1141;-75
2022/03/04 02:54:28;;;;;;;;;;;;;;;;;;5093041;28;1396;-76
2022/03/04 02:56:55;;;;;;;;;;;;;;;;;;5093138;28;1101;-76
2022/03/04 02:59:21;;;;;;;;;;;;;;;;;;5093043;28;1914;-76
2022/03/04 03:01:48;;;;;;;;;;;;;;;;;;5092896;28;905;-76
2022/03/04 03:04:14;;;;;;;;;;;;;;;;;;5092794;28;1325;-76
2022/03/04 03:06:42;;;;;;;;;;;;;;;;;;5093013;28;873;-76
2022/03/04 03:09:08;;;;;;;;;;;;;;;;;;5092639;28;1047;-75
2022/03/04 03:11:34;;;;;;;;;;;;;;;;;;5092520;28;813;-76
2022/03/04 03:14:02;;;;;;;;;;;;;;;;;;5092662;28;1316;-76
2022/03/04 03:16:28;;;;;;;;;;;;;;;;;;5092849;28;862;-76
2022/03/04 03:18:54;;;;;;;;;;;;;;;;;;5092618;28;1918;-76
2022/03/04 03:21:20;;;;;;;;;;;;;;;;;;5092408;28;1086;-75
2022/03/04 03:23:47;;;;;;;;;;;;;;;;;;5092674;28;1249;-76
2022/03/04 03:26:14;;;;;;;;;;;;;;;;;;5092778;28;1075;-75
2022/03/04 03:28:40;;;;;;;;;;;;;;;;;;5092445;28;1055;-76
2022/03/04 03:31:08;;;;;;;;;;;;;;;;;;5092228;28;912;-76
2022/03/04 03:33:36;;;;;;;;;;;;;;;;;;5092466;28;1366;-76
2022/03/04 03:36:03;;;;;;;;;;;;;;;;;;5092632;28;767;-76
2022/03/04 03:38:29;;;;;;;;;;;;;;;;;;5092229;28;1914;-76
2022/03/04 03:40:55;;;;;;;;;;;;;;;;;;5091832;28;1153;-76
2022/03/04 03:43:22;;;;;;;;;;;;;;;;;;5095475;28;1759;-75
2022/03/04 03:45:48;;;;;;;;;;;;;;;;;;5102472;28;1089;-74
2022/03/04 03:48:16;;;;;;;;;;;;;;;;;;5085530;28;1212;-76
2022/03/04 03:50:42;;;;;;;;;;;;;;;;;;5112354;28;1127;-76
2022/03/04 03:53:09;;;;;;;;;;;;;;;;;;5112555;28;1086;-76
2022/03/04 03:55:35;;;;;;;;;;;;;;;;;;5112220;28;1074;-75
2022/03/04 03:58:02;;;;;;;;;;;;;;;;;;5094222;28;1471;-75
2022/03/04 04:00:28;;;;;;;;;;;;;;;;;;5112076;28;1918;-75
2022/03/04 04:02:54;;;;;;;;;;;;;;;;;;5112308;28;865;-76
2022/03/04 04:05:22;;;;;;;;;;;;;;;;;;5112126;28;1385;-75
2022/03/04 04:07:48;;;;;;;;;;;;;;;;;;5112038;28;1086;-75
2022/03/04 04:10:14;;;;;;;;;;;;;;;;;;5093414;28;1214;-75
2022/03/04 04:12:40;;;;;;;;;;;;;;;;;;5112213;28;889;-75
2022/03/04 04:15:07;;;;;;;;;;;;;;;;;;5112031;28;1264;-75
2022/03/04 04:17:33;;;;;;;;;;;;;;;;;;5112020;28;834;-75
2022/03/04 04:19:59;;;;;;;;;;;;;;;;;;5111666;28;1973;-75
2022/03/04 04:22:27;;;;;;;;;;;;;;;;;;5106781;28;1552;-75
2022/03/04 04:24:53;;;;;;;;;;;;;;;;;;5091007;28;1256;-75
2022/03/04 04:27:19;;;;;;;;;;;;;;;;;;5091432;28;1075;-75
2022/03/04 04:29:46;;;;;;;;;;;;;;;;;;5072889;28;1425;-74
2022/03/04 04:32:12;;;;;;;;;;;;;;;;;;5091375;28;1130;-74
2022/03/04 04:34:38;;;;;;;;;;;;;;;;;;5092009;28;1388;-75
2022/03/04 04:37:04;;;;;;;;;;;;;;;;;;5074516;28;1337;-75
2022/03/04 04:39:32;;;;;;;;;;;;;;;;;;5091673;28;1985;-74
2022/03/04 04:41:58;;;;;;;;;;;;;;;;;;5091109;28;1078;-75
2022/03/04 04:44:24;;;;;;;;;;;;;;;;;;5072525;28;1298;-75
2022/03/04 04:46:51;;;;;;;;;;;;;;;;;;5091183;28;1154;-75
2022/03/04 04:49:17;;;;;;;;;;;;;;;;;;5072995;28;1239;-74
2022/03/04 04:51:43;;;;;;;;;;;;;;;;;;5090856;28;987;-75
2022/03/04 04:54:09;;;;;;;;;;;;;;;;;;5091003;28;1399;-74
2022/03/04 04:56:37;;;;;;;;;;;;;;;;;;5091163;28;1022;-75
2022/03/04 04:59:03;;;;;;;;;;;;;;;;;;5090754;28;1918;-75
2022/03/04 05:01:29;;;;;;;;;;;;;;;;;;5090607;28;1090;-75
2022/03/04 05:03:55;;;;;;;;;;;;;;;;;;5090765;28;1307;-75
2022/03/04 05:06:21;;;;;;;;;;;;;;;;;;5090303;28;858;-75
2022/03/04 05:08:48;;;;;;;;;;;;;;;;;;5090472;28;1146;-75
2022/03/04 05:11:14;;;;;;;;;;;;;;;;;;5090382;28;1063;-76
2022/03/04 05:13:41;;;;;;;;;;;;;;;;;;5090510;28;1321;-75
2022/03/04 05:16:08;;;;;;;;;;;;;;;;;;5072692;28;900;-75
2022/03/04 05:18:34;;;;;;;;;;;;;;;;;;5090754;28;1067;-74
2022/03/04 05:21:02;;;;;;;;;;;;;;;;;;5089975;28;1913;-74
2022/03/04 05:26:12;;;;;;;;;;;;;;;;;;5090898;28;936;-75
2022/03/04 05:28:38;;;;;;;;;;;;;;;;;;5072302;28;1166;-75
2022/03/04 05:31:06;;;;;;;;;;;;;;;;;;5090226;28;1110;-75
2022/03/04 05:33:33;;;;;;;;;;;;;;;;;;5090219;28;1314;-75
2022/03/04 05:35:59;;;;;;;;;;;;;;;;;;5096859;28;1468;-75
2022/03/04 05:38:25;;;;;;;;;;;;;;;;;;5110556;28;833;-75
2022/03/04 05:40:52;;;;;;;;;;;;;;;;;;5109576;28;1914;-73
2022/03/04 05:43:18;;;;;;;;;;;;;;;;;;5110324;28;1286;-75
2022/03/04 05:45:44;;;;;;;;;;;;;;;;;;5108197;28;1568;-74
2022/03/04 05:48:12;;;;;;;;;;;;;;;;;;5093200;28;1460;-74
2022/03/04 05:50:38;;;;;;;;;;;;;;;;;;5090579;28;1496;-73
2022/03/04 05:53:04;;;;;;;;;;;;;;;;;;5090220;28;952;-74
2022/03/04 05:55:30;;;;;;;;;;;;;;;;;;5089982;28;1285;-74
2022/03/04 05:57:56;;;;;;;;;;;;;;;;;;5071613;28;1584;-74
2022/03/04 06:00:23;;;;;;;;;;;;;;;;;;5089724;28;1906;-74
2022/03/04 06:02:49;;;;;;;;;;;;;;;;;;5090206;28;882;-74
2022/03/04 06:05:16;;;;;;;;;;;;;;;;;;5154234;22;3515;-67
2022/03/04 06:07:43;;;;;;;;;;;;;;;;;;5032419;28;1143;-70
2022/03/04 06:10:09;;;;;;;;;;;;;;;;;;5031707;28;1231;-69
2022/03/04 06:12:36;;;;;;;;;;;;;;;;;;5061493;28;1513;-69
2022/03/04 06:15:02;;;;;;;;;;;;;;;;;;5049517;28;1558;-70
2022/03/04 06:17:28;;;;;;;;;;;;;;;;;;5054737;28;1466;-69
2022/03/04 06:19:54;;;;;;;;;;;;;;;;;;5071739;28;1965;-69
2022/03/04 06:22:22;;;;;;;;;;;;;;;;;;5069592;28;1473;-68
2022/03/04 06:24:48;;;;;;;;;;;;;;;;;;5070741;28;1477;-69
2022/03/04 06:27:15;;;;;;;;;;;;;;;;;;5053131;28;1437;-69
2022/03/04 06:29:41;;;;;;;;;;;;;;;;;;5070488;28;1473;-68
2022/03/04 06:32:08;;;;;;;;;;;;;;;;;;5071200;28;1532;-70
2022/03/04 06:34:34;;;;;;;;;;;;;;;;;;5051175;28;1294;-70
2022/03/04 06:37:00;;;;;;;;;;;;;;;;;;5051465;28;1360;-69
2022/03/04 06:39:28;;;;;;;;;;;;;;;;;;5070093;28;1930;-70
2022/03/04 06:41:54;;;;;;;;;;;;;;;;;;5071461;28;1513;-69
2022/03/04 06:44:20;;;;;;;;;;;;;;;;;;5070281;28;1494;-70
2022/03/04 06:46:47;;;;;;;;;;;;;;;;;;5053174;28;1486;-69
2022/03/04 06:49:13;;;;;;;;;;;;;;;;;;5071774;28;794;-69
2022/03/04 06:51:39;;;;;;;;;;;;;;;;;;5070983;28;1449;-70
2022/03/04 06:54:06;;;;;;;;;;;;;;;;;;5068493;28;1323;-68
2022/03/04 06:56:33;;;;;;;;;;;;;;;;;;5055818;28;1292;-70
2022/03/04 06:59:00;;;;;;;;;;;;;;;;;;5072216;28;1353;-70
2022/03/04 07:01:26;;;;;;;;;;;;;;;;;;5071802;28;1918;-71
2022/03/04 07:03:52;;;;;;;;;;;;;;;;;;5072904;28;1311;-70
2022/03/04 07:06:19;;;;;;;;;;;;;;;;;;5072359;28;1461;-70
2022/03/04 07:08:45;;;;;;;;;;;;;;;;;;5072847;28;1604;-71
2022/03/04 07:11:12;;;;;;;;;;;;;;;;;;5053907;28;1536;-70
2022/03/04 07:13:39;;;;;;;;;;;;;;;;;;5072349;28;1311;-71
2022/03/04 07:16:05;;;;;;;;;;;;;;;;;;5054659;28;1462;-71
2022/03/04 07:18:32;;;;;;;;;;;;;;;;;;5054102;28;1531;-71
2022/03/04 07:20:58;;;;;;;;;;;;;;;;;;5071634;28;1922;-70
2022/03/04 07:23:24;;;;;;;;;;;;;;;;;;5067618;28;975;-71
2022/03/04 07:25:50;;;;;;;;;;;;;;;;;;5047341;28;1438;-71
2022/03/04 07:28:17;;;;;;;;;;;;;;;;;;5071286;28;1560;-70
2022/03/04 07:30:44;;;;;;;;;;;;;;;;;;5072018;28;1572;-70
2022/03/04 07:33:11;;;;;;;;;;;;;;;;;;5072132;28;1588;-70
2022/03/04 07:35:44;;;;;;;;;;;;;;;;;;5072641;28;1413;-71
2022/03/04 07:38:11;;;;;;;;;;;;;;;;;;5072130;28;1509;-71
2022/03/04 07:40:37;;;;;;;;;;;;;;;;;;5071986;28;1918;-71
2022/03/04 07:43:04;;;;;;;;;;;;;;;;;;5071615;28;1536;-71
2022/03/04 07:45:31;;;;;;;;;;;;;;;;;;5053325;28;1583;-70
2022/03/04 07:47:58;;;;;;;;;;;;;;;;;;5072296;28;1576;-70
2022/03/04 07:50:25;;;;;;;;;;;;;;;;;;5074553;28;1239;-71
2022/03/04 07:52:51;;;;;;;;;;;;;;;;;;5076489;28;1509;-70
2022/03/04 07:55:17;;;;;;;;;;;;;;;;;;5073450;28;1422;-70
2022/03/04 07:57:44;;;;;;;;;;;;;;;;;;5071856;28;1177;-71
2022/03/04 08:00:13;;;;;;;;;;;;;;;;;;5070786;28;1965;-70
2022/03/04 08:02:39;;;;;;;;;;;;;;;;;;5071467;28;1051;-71
2022/03/04 08:05:08;;;;;;;;;;;;;;;;;;5064008;28;1522;-71
2022/03/04 08:07:34;;;;;;;;;;;;;;;;;;5058909;28;1253;-71
2022/03/04 08:10:00;;;;;;;;;;;;;;;;;;5071224;28;1492;-71
2022/03/04 08:12:26;;;;;;;;;;;;;;;;;;5048069;28;1199;-71
2022/03/04 08:14:53;;;;;;;;;;;;;;;;;;5071196;28;1989;-71
2022/03/04 08:17:19;;;;;;;;;;;;;;;;;;5066575;28;1022;-70
2022/03/04 08:19:46;;;;;;;;;;;;;;;;;;5070987;28;1910;-71
2022/03/04 08:22:13;;;;;;;;;;;;;;;;;;5070703;28;1260;-71
2022/03/04 08:24:39;;;;;;;;;;;;;;;;;;5070768;28;1564;-71
2022/03/04 08:27:05;;;;;;;;;;;;;;;;;;5071579;28;1493;-71
2022/03/04 08:29:32;;;;;;;;;;;;;;;;;;5071091;28;946;-69
2022/03/04 08:31:58;;;;;;;;;;;;;;;;;;5070803;28;1501;-71
2022/03/04 08:34:24;;;;;;;;;;;;;;;;;;5070475;28;1341;-70
2022/03/04 08:36:50;;;;;;;;;;;;;;;;;;5071190;28;1620;-70
2022/03/04 08:39:18;;;;;;;;;;;;;;;;;;5070468;28;886;-71
2022/03/04 08:41:44;;;;;;;;;;;;;;;;;;5069566;28;2045;-69
2022/03/04 08:44:10;;;;;;;;;;;;;;;;;;5078144;28;1505;-70
2022/03/04 08:46:37;;;;;;;;;;;;;;;;;;5070389;28;1423;-70
2022/03/04 08:49:03;;;;;;;;;;;;;;;;;;5070618;28;1501;-71
2022/03/04 08:51:29;;;;;;;;;;;;;;;;;;5070160;28;1271;-70
2022/03/04 08:53:55;;;;;;;;;;;;;;;;;;5050365;28;1550;-70
2022/03/04 08:56:25;;;;;;;;;;;;;;;;;;5052326;28;1361;-71
2022/03/04 08:58:51;;;;;;;;;;;;;;;;;;5070762;28;1501;-71
2022/03/04 09:01:17;;;;;;;;;;;;;;;;;;5070104;28;2064;-71
2022/03/04 09:03:44;;;;;;;;;;;;;;;;;;5052200;28;1481;-71
2022/03/04 09:06:11;;;;;;;;;;;;;;;;;;5069945;28;1421;-71
2022/03/04 09:08:37;;;;;;;;;;;;;;;;;;5062140;28;1555;-71
2022/03/04 09:11:03;;;;;;;;;;;;;;;;;;5070570;28;821;-71
2022/03/04 09:13:32;;;;;;;;;;;;;;;;;;5051913;28;1484;-71
2022/03/04 09:15:58;;;;;;;;;;;;;;;;;;5070186;28;1395;-70
2022/03/04 09:18:25;;;;;;;;;;;;;;;;;;5052150;28;1579;-71
2022/03/04 09:20:51;;;;;;;;;;;;;;;;;;5069964;28;1918;-71
2022/03/04 09:23:17;;;;;;;;;;;;;;;;;;5069530;28;1380;-71
2022/03/04 09:25:43;;;;;;;;;;;;;;;;;;5069975;28;1394;-71
2022/03/04 09:28:10;;;;;;;;;;;;;;;;;;5070151;28;1216;-71
2022/03/04 09:30:38;;;;;;;;;;;;;;;;;;5069664;28;1240;-72
2022/03/04 09:33:04;;;;;;;;;;;;;;;;;;5070225;28;1640;-71
2022/03/04 09:35:30;;;;;;;;;;;;;;;;;;5069556;28;1350;-71
2022/03/04 09:37:56;;;;;;;;;;;;;;;;;;5069848;28;1517;-71
2022/03/04 09:40:22;;;;;;;;;;;;;;;;;;5069612;28;1965;-70
2022/03/04 09:42:49;;;;;;;;;;;;;;;;;;5070244;28;1094;-70
2022/03/04 09:45:15;;;;;;;;;;;;;;;;;;5060643;28;1743;-71
2022/03/04 09:47:43;;;;;;;;;;;;;;;;;;5069658;28;1211;-71
2022/03/04 09:50:09;;;;;;;;;;;;;;;;;;5069177;28;1584;-71
2022/03/04 09:52:37;;;;;;;;;;;;;;;;;;5071850;28;906;-71
2022/03/04 09:55:03;;;;;;;;;;;;;;;;;;5074289;28;1331;-71
2022/03/04 09:57:29;;;;;;;;;;;;;;;;;;5073755;28;1449;-70
2022/03/04 09:59:56;;;;;;;;;;;;;;;;;;5073189;28;1266;-71
2022/03/04 10:02:25;;;;;;;;;;;;;;;;;;5073746;28;1918;-71
2022/03/04 10:04:58;;;;;;;;;;;;;;;;;;5058077;28;1317;-70
2022/03/04 10:07:25;;;;;;;;;;;;;;;;;;5073819;28;1023;-70
2022/03/04 10:09:51;;;;;;;;;;;;;;;;;;5073420;28;1501;-71
2022/03/04 10:12:18;;;;;;;;;;;;;;;;;;5073210;28;1133;-70
2022/03/04 10:14:58;;;;;;;;;;;;;;;;;;5073749;28;1584;-71
2022/03/04 10:17:25;;;;;;;;;;;;;;;;;;5072932;28;1501;-71
2022/03/04 10:19:52;;;;;;;;;;;;;;;;;;5072833;28;1452;-71
2022/03/04 10:22:19;;;;;;;;;;;;;;;;;;5073307;28;1925;-70
2022/03/04 10:24:46;;;;;;;;;;;;;;;;;;5073499;28;1412;-71
2022/03/04 10:27:13;;;;;;;;;;;;;;;;;;5073018;28;1505;-70
2022/03/04 10:29:39;;;;;;;;;;;;;;;;;;5072934;28;1538;-68
2022/03/04 10:32:10;;;;;;;;;;;;;;;;;;5073167;28;953;-69
2022/03/04 10:34:43;;;;;;;;;;;;;;;;;;5073320;28;1529;-69
2022/03/04 10:37:10;;;;;;;;;;;;;;;;;;5044435;28;1481;-70
2022/03/04 10:39:37;;;;;;;;;;;;;;;;;;5072793;28;1149;-70
2022/03/04 10:42:04;;;;;;;;;;;;;;;;;;5072978;28;1981;-71
2022/03/04 10:44:30;;;;;;;;;;;;;;;;;;5073081;28;1407;-70
2022/03/04 10:46:57;;;;;;;;;;;;;;;;;;5056041;28;1579;-71
2022/03/04 10:49:24;;;;;;;;;;;;;;;;;;5075605;28;1489;-71
2022/03/04 10:51:50;;;;;;;;;;;;;;;;;;5057532;28;1917;-70
2022/03/04 10:54:17;;;;;;;;;;;;;;;;;;5072059;28;1383;-69
2022/03/04 10:56:51;;;;;;;;;;;;;;;;;;5071383;28;1323;-70
2022/03/04 10:59:18;;;;;;;;;;;;;;;;;;5055310;28;1485;-70
2022/03/04 11:01:47;;;;;;;;;;;;;;;;;;5072325;28;1906;-70
2022/03/04 11:04:13;;;;;;;;;;;;;;;;;;5053098;28;1493;-71
2022/03/04 11:06:41;;;;;;;;;;;;;;;;;;5073265;28;1070;-70
2022/03/04 11:09:08;;;;;;;;;;;;;;;;;;5072209;28;1642;-72
2022/03/04 11:11:34;;;;;;;;;;;;;;;;;;5072322;28;945;-71
2022/03/04 11:14:01;;;;;;;;;;;;;;;;;;5072225;28;1561;-70
2022/03/04 11:16:28;;;;;;;;;;;;;;;;;;5072691;28;1445;-71
2022/03/04 11:18:54;;;;;;;;;;;;;;;;;;5072172;28;1512;-71
2022/03/04 11:21:20;;;;;;;;;;;;;;;;;;5072276;28;1922;-71
2022/03/04 11:23:47;;;;;;;;;;;;;;;;;;5072503;28;1520;-71
2022/03/04 11:26:19;;;;;;;;;;;;;;;;;;5072011;28;1537;-70
2022/03/04 11:28:49;;;;;;;;;;;;;;;;;;5071481;28;1656;-71
2022/03/04 11:31:20;;;;;;;;;;;;;;;;;;5072272;28;1474;-71
2022/03/04 11:33:48;;;;;;;;;;;;;;;;;;5072814;28;1262;-70
2022/03/04 11:36:15;;;;;;;;;;;;;;;;;;5072784;28;1353;-70
2022/03/04 11:39:05;;;;;;;;;;;;;;;;;;5071463;28;1548;-71
2022/03/04 11:41:34;;;;;;;;;;;;;;;;;;5071467;28;1910;-70
2022/03/04 11:44:01;;;;;;;;;;;;;;;;;;5071671;28;1548;-70
2022/03/04 11:46:29;;;;;;;;;;;;;;;;;;5071796;28;1525;-71
2022/03/04 11:49:14;;;;;;;;;;;;;;;;;;5053533;28;1535;-70
2022/03/04 11:51:41;;;;;;;;;;;;;;;;;;5071445;28;1431;-70
2022/03/04 11:54:22;;;;;;;;;;;;;;;;;;5070821;28;1336;-71
2022/03/04 11:56:50;;;;;;;;;;;;;;;;;;5070701;28;1458;-70
2022/03/04 11:59:19;;;;;;;;;;;;;;;;;;5071649;28;1327;-70
2022/03/04 12:01:47;;;;;;;;;;;;;;;;;;5070819;28;1973;-69
2022/03/04 12:04:14;;;;;;;;;;;;;;;;;;5070983;28;1497;-70
2022/03/04 12:06:40;;;;;;;;;;;;;;;;;;5192425;22;4270;-75
2022/03/04 12:09:25;;;;;;;;;;;;;;;;;;5112217;28;1047;-76
2022/03/04 12:12:11;;;;;;;;;;;;;;;;;;5084756;28;1689;-76
2022/03/04 12:14:37;;;;;;;;;;;;;;;;;;5120351;28;908;-75
2022/03/04 12:17:05;;;;;;;;;;;;;;;;;;5109632;28;1560;-73
2022/03/04 12:19:31;;;;;;;;;;;;;;;;;;5118688;28;1549;-73
2022/03/04 12:21:58;;;;;;;;;;;;;;;;;;5101799;28;1974;-75
2022/03/04 12:24:28;;;;;;;;;;;;;;;;;;5104717;28;1044;-74
2022/03/04 12:26:55;;;;;;;;;;;;;;;;;;5097702;28;1370;-75
2022/03/04 12:29:23;;;;;;;;;;;;;;;;;;5094526;28;1078;-74
2022/03/04 12:31:51;;;;;;;;;;;;;;;;;;5092443;28;877;-74
2022/03/04 12:34:20;;;;;;;;;;;;;;;;;;5092283;28;1075;-75
2022/03/04 12:36:46;;;;;;;;;;;;;;;;;;5108943;28;1429;-74
2022/03/04 12:39:12;;;;;;;;;;;;;;;;;;5099838;28;980;-75
2022/03/04 12:41:39;;;;;;;;;;;;;;;;;;5091580;28;1922;-74
2022/03/04 12:44:06;;;;;;;;;;;;;;;;;;5092081;28;920;-74
2022/03/04 12:46:34;;;;;;;;;;;;;;;;;;5091650;28;1478;-74
2022/03/04 12:49:01;;;;;;;;;;;;;;;;;;5110854;28;1311;-75
2022/03/04 12:51:29;;;;;;;;;;;;;;;;;;5110863;28;1349;-73
2022/03/04 12:53:56;;;;;;;;;;;;;;;;;;5111869;28;1138;-74
2022/03/04 12:56:23;;;;;;;;;;;;;;;;;;5111496;28;1539;-75
2022/03/04 12:58:50;;;;;;;;;;;;;;;;;;5111964;28;992;-74
2022/03/04 13:01:17;;;;;;;;;;;;;;;;;;5109577;28;1953;-73
2022/03/04 13:03:44;;;;;;;;;;;;;;;;;;5111364;28;1508;-75
2022/03/04 13:06:10;;;;;;;;;;;;;;;;;;5092119;28;1551;-75
2022/03/04 13:08:38;;;;;;;;;;;;;;;;;;5111342;28;810;-75
2022/03/04 13:11:11;;;;;;;;;;;;;;;;;;5092117;28;1539;-75
2022/03/04 13:13:44;;;;;;;;;;;;;;;;;;5105332;28;1126;-74
2022/03/04 13:16:10;;;;;;;;;;;;;;;;;;5106938;28;1582;-75
2022/03/04 13:18:36;;;;;;;;;;;;;;;;;;5111525;28;1149;-75
2022/03/04 13:21:03;;;;;;;;;;;;;;;;;;5110976;28;1679;-74
2022/03/04 13:23:29;;;;;;;;;;;;;;;;;;5110627;28;1978;-75
2022/03/04 13:26:01;;;;;;;;;;;;;;;;;;5096786;28;1519;-74
2022/03/04 13:28:27;;;;;;;;;;;;;;;;;;5106123;28;2136;-74
2022/03/04 13:30:53;;;;;;;;;;;;;;;;;;5110875;28;1562;-74
2022/03/04 13:33:19;;;;;;;;;;;;;;;;;;5108124;28;1567;-74
2022/03/04 13:35:49;;;;;;;;;;;;;;;;;;5110632;28;1489;-73
2022/03/04 13:38:22;;;;;;;;;;;;;;;;;;5110929;28;896;-74
2022/03/04 13:40:49;;;;;;;;;;;;;;;;;;5090689;28;1558;-73
2022/03/04 13:43:27;;;;;;;;;;;;;;;;;;5090552;28;1894;-74
2022/03/04 13:45:55;;;;;;;;;;;;;;;;;;5090435;28;1383;-74
2022/03/04 13:48:23;;;;;;;;;;;;;;;;;;5096597;28;1497;-74
2022/03/04 13:50:49;;;;;;;;;;;;;;;;;;5095167;28;1329;-75
2022/03/04 13:53:19;;;;;;;;;;;;;;;;;;5089375;28;1645;-74
2022/03/04 13:55:46;;;;;;;;;;;;;;;;;;5108880;28;1430;-75
2022/03/04 13:58:14;;;;;;;;;;;;;;;;;;5075561;28;1144;-75
2022/03/04 14:00:42;;;;;;;;;;;;;;;;;;5105982;28;1531;-75
2022/03/04 14:03:09;;;;;;;;;;;;;;;;;;5111266;28;1977;-75
2022/03/04 14:05:36;;;;;;;;;;;;;;;;;;5092441;28;1382;-74
2022/03/04 14:08:03;;;;;;;;;;;;;;;;;;5091860;28;923;-75
2022/03/04 14:10:30;;;;;;;;;;;;;;;;;;5106749;28;1547;-75
2022/03/04 14:12:57;;;;;;;;;;;;;;;;;;5102162;28;1140;-75
2022/03/04 14:15:23;;;;;;;;;;;;;;;;;;5110674;28;1434;-75
2022/03/04 14:17:52;;;;;;;;;;;;;;;;;;5111013;28;893;-74
2022/03/04 14:20:19;;;;;;;;;;;;;;;;;;5108868;28;1466;-74
2022/03/04 14:22:45;;;;;;;;;;;;;;;;;;5110223;28;1972;-74
2022/03/04 14:25:11;;;;;;;;;;;;;;;;;;5092355;28;1484;-74
2022/03/04 14:27:38;;;;;;;;;;;;;;;;;;5111705;28;1453;-75
2022/03/04 14:30:05;;;;;;;;;;;;;;;;;;5111186;28;975;-75
2022/03/04 14:32:31;;;;;;;;;;;;;;;;;;5110476;28;1507;-74
2022/03/04 14:34:59;;;;;;;;;;;;;;;;;;5105247;28;1499;-73
2022/03/04 14:37:25;;;;;;;;;;;;;;;;;;5085339;28;1508;-73
2022/03/04 14:39:51;;;;;;;;;;;;;;;;;;5112401;28;1309;-73
2022/03/04 14:42:17;;;;;;;;;;;;;;;;;;5112623;28;1913;-74
2022/03/04 14:44:43;;;;;;;;;;;;;;;;;;5114131;28;1318;-76
2022/03/04 14:47:10;;;;;;;;;;;;;;;;;;5114186;28;1500;-76
2022/03/04 14:49:36;;;;;;;;;;;;;;;;;;5113798;28;1512;-73
2022/03/04 14:52:05;;;;;;;;;;;;;;;;;;5113099;28;1906;-74
2022/03/04 14:54:31;;;;;;;;;;;;;;;;;;5081825;28;1326;-74
2022/03/04 14:56:58;;;;;;;;;;;;;;;;;;5098272;28;1413;-74
2022/03/04 14:59:25;;;;;;;;;;;;;;;;;;5113338;28;1487;-74
2022/03/04 15:01:51;;;;;;;;;;;;;;;;;;5104995;28;1200;-74
2022/03/04 15:04:17;;;;;;;;;;;;;;;;;;5092806;28;1242;-70
2022/03/04 15:06:43;;;;;;;;;;;;;;;;;;5105616;28;1446;-73
2022/03/04 15:09:12;;;;;;;;;;;;;;;;;;5113523;28;944;-74
2022/03/04 15:11:39;;;;;;;;;;;;;;;;;;5113481;28;1070;-73
2022/03/04 15:14:05;;;;;;;;;;;;;;;;;;5113571;28;1914;-73
2022/03/04 15:16:32;;;;;;;;;;;;;;;;;;5113358;28;1370;-73
2022/03/04 15:18:58;;;;;;;;;;;;;;;;;;5113884;28;810;-74
2022/03/04 15:21:24;;;;;;;;;;;;;;;;;;5113429;28;1102;-74
2022/03/04 15:23:51;;;;;;;;;;;;;;;;;;5113812;28;948;-74
2022/03/04 15:26:18;;;;;;;;;;;;;;;;;;5113561;28;1404;-73
2022/03/04 15:28:44;;;;;;;;;;;;;;;;;;5113948;28;967;-74
2022/03/04 15:31:10;;;;;;;;;;;;;;;;;;5113079;28;1436;-74
2022/03/04 15:33:37;;;;;;;;;;;;;;;;;;5105868;28;1914;-74
2022/03/04 15:36:03;;;;;;;;;;;;;;;;;;5101143;28;1345;-74
2022/03/04 15:38:29;;;;;;;;;;;;;;;;;;5104534;28;1542;-74
2022/03/04 15:40:56;;;;;;;;;;;;;;;;;;5089755;28;1358;-74
2022/03/04 15:43:23;;;;;;;;;;;;;;;;;;5092859;28;1497;-74
2022/03/04 15:45:49;;;;;;;;;;;;;;;;;;5092916;28;1464;-74
2022/03/04 15:48:16;;;;;;;;;;;;;;;;;;5111163;28;1499;-74
2022/03/04 15:50:42;;;;;;;;;;;;;;;;;;5110364;28;1516;-73
2022/03/04 15:53:08;;;;;;;;;;;;;;;;;;5092684;28;1922;-74
2022/03/04 15:55:34;;;;;;;;;;;;;;;;;;5110823;28;1339;-74
2022/03/04 15:58:00;;;;;;;;;;;;;;;;;;5110800;28;1504;-74
2022/03/04 16:00:28;;;;;;;;;;;;;;;;;;5110386;28;1122;-74
2022/03/04 16:02:54;;;;;;;;;;;;;;;;;;5111230;28;1476;-73
2022/03/04 16:05:22;;;;;;;;;;;;;;;;;;5110911;28;1266;-73
2022/03/04 16:07:48;;;;;;;;;;;;;;;;;;5110396;28;1368;-74
2022/03/04 16:10:14;;;;;;;;;;;;;;;;;;5108300;28;1535;-73
2022/03/04 16:12:41;;;;;;;;;;;;;;;;;;5092554;28;1967;-73
2022/03/04 16:15:08;;;;;;;;;;;;;;;;;;5110450;28;1424;-74
2022/03/04 16:17:35;;;;;;;;;;;;;;;;;;5091827;28;1500;-73
2022/03/04 16:20:02;;;;;;;;;;;;;;;;;;5109541;28;1396;-73
2022/03/04 16:22:28;;;;;;;;;;;;;;;;;;5109289;28;1948;-74
2022/03/04 16:24:54;;;;;;;;;;;;;;;;;;5110693;28;1152;-73
2022/03/04 16:27:20;;;;;;;;;;;;;;;;;;5109926;28;1440;-73
2022/03/04 16:29:47;;;;;;;;;;;;;;;;;;5110120;28;1004;-74
2022/03/04 16:32:13;;;;;;;;;;;;;;;;;;5092342;28;1469;-73
2022/03/04 16:34:42;;;;;;;;;;;;;;;;;;5111602;28;1063;-73
2022/03/04 16:37:08;;;;;;;;;;;;;;;;;;5109299;27;1999;-74
2022/03/04 16:39:34;;;;;;;;;;;;;;;;;;5108698;28;1164;-73
2022/03/04 16:42:00;;;;;;;;;;;;;;;;;;5106988;28;1144;-73
2022/03/04 16:44:27;;;;;;;;;;;;;;;;;;5112382;28;1098;-73
2022/03/04 16:46:53;;;;;;;;;;;;;;;;;;5112189;28;1345;-74
2022/03/04 16:49:19;;;;;;;;;;;;;;;;;;5112242;28;781;-73
2022/03/04 16:51:47;;;;;;;;;;;;;;;;;;5111779;28;1078;-74
2022/03/04 16:54:13;;;;;;;;;;;;;;;;;;5112036;28;1973;-74
2022/03/04 16:56:41;;;;;;;;;;;;;;;;;;5112496;28;1297;-73
2022/03/04 16:59:07;;;;;;;;;;;;;;;;;;5112203;28;833;-73
2022/03/04 17:01:33;;;;;;;;;;;;;;;;;;5111041;28;1079;-72
2022/03/04 17:03:59;;;;;;;;;;;;;;;;;;5112234;28;1070;-73
2022/03/04 17:06:26;;;;;;;;;;;;;;;;;;5112621;28;1321;-74